createdAt,value
2022-08-29T00:00:42.803Z,6.47
2022-08-29T00:03:11.274Z,6.80
2022-08-29T00:05:39.875Z,7.28
2022-08-29T00:08:07.054Z,6.78
2022-08-29T00:10:36.683Z,6.55
2022-08-29T00:13:08.627Z,6.55
2022-08-29T00:15:44.608Z,6.93
2022-08-29T00:18:13.825Z,6.95
2022-08-29T00:20:40.919Z,6.60
2022-08-29T00:23:09.882Z,6.00
2022-08-29T00:25:37.078Z,7.07
2022-08-29T00:28:04.257Z,7.05
2022-08-29T00:30:31.478Z,6.85
2022-08-29T00:32:58.431Z,6.05
2022-08-29T00:35:34.226Z,6.78
2022-08-29T00:38:01.798Z,6.45
2022-08-29T00:40:33.248Z,6.60
2022-08-29T00:43:00.627Z,7.17
2022-08-29T00:45:28.100Z,6.75
2022-08-29T00:48:10.561Z,7.20
2022-08-29T00:50:43.639Z,7.00
2022-08-29T00:53:13.861Z,6.13
2022-08-29T00:55:40.937Z,7.28
2022-08-29T00:58:21.871Z,7.18
2022-08-29T01:00:49.557Z,6.75
2022-08-29T01:03:16.343Z,6.40
2022-08-29T01:05:43.207Z,6.45
2022-08-29T01:08:10.137Z,6.75
2022-08-29T01:10:55.923Z,7.43
2022-08-29T01:13:29.742Z,5.88
2022-08-29T01:15:58.356Z,6.25
2022-08-29T01:18:26.983Z,6.40
2022-08-29T01:21:20.079Z,7.75
2022-08-29T01:24:16.266Z,6.72
2022-08-29T01:26:45.362Z,6.28
2022-08-29T01:29:13.270Z,6.70
2022-08-29T01:31:56.229Z,6.85
2022-08-29T01:34:26.211Z,6.78
2022-08-29T01:36:55.364Z,6.93
2022-08-29T01:39:26.467Z,6.60
2022-08-29T01:41:54.502Z,6.63
2022-08-29T01:44:25.233Z,6.30
2022-08-29T01:47:02.849Z,6.07
2022-08-29T01:49:34.742Z,6.28
2022-08-29T01:52:05.979Z,5.95
2022-08-29T01:54:33.025Z,6.63
2022-08-29T01:57:01.130Z,7.05
2022-08-29T01:59:30.016Z,6.43
2022-08-29T02:02:08.060Z,6.82
2022-08-29T02:04:35.170Z,7.40
2022-08-29T02:07:05.718Z,6.82
2022-08-29T02:09:34.998Z,6.68
2022-08-29T02:12:07.174Z,6.65
2022-08-29T02:14:35.250Z,6.00
2022-08-29T02:17:03.839Z,6.85
2022-08-29T02:19:30.683Z,7.32
2022-08-29T02:21:57.570Z,7.30
2022-08-29T02:58:28.150Z,6.22
2022-08-29T03:00:54.994Z,6.32
2022-08-29T03:03:22.250Z,5.97
2022-08-29T03:05:49.036Z,5.93
2022-08-29T03:08:16.014Z,6.85
2022-08-29T03:10:43.324Z,6.35
2022-08-29T03:13:10.844Z,6.22
2022-08-29T03:15:37.655Z,6.50
2022-08-29T03:18:04.711Z,5.85
2022-08-29T03:20:34.873Z,6.53
2022-08-29T03:23:02.330Z,6.65
2022-08-29T03:25:29.240Z,6.57
2022-08-29T03:27:56.244Z,6.45
2022-08-29T03:30:23.970Z,6.70
2022-08-29T03:32:51.022Z,6.55
2022-08-29T03:35:19.636Z,6.65
2022-08-29T03:37:46.819Z,6.45
2022-08-29T03:40:14.107Z,6.57
2022-08-29T03:42:42.928Z,5.80
2022-08-29T03:45:12.451Z,5.82
2022-08-29T03:47:39.366Z,6.13
2022-08-29T03:50:06.454Z,5.43
2022-08-29T03:52:33.211Z,6.07
2022-08-29T03:55:00.579Z,6.40
2022-08-29T03:57:27.775Z,6.13
2022-08-29T03:59:58.023Z,5.90
2022-08-29T04:02:25.026Z,5.82
2022-08-29T04:05:09.961Z,6.47
2022-08-29T04:07:47.442Z,6.32
2022-08-29T04:10:34.495Z,6.05
2022-08-29T04:13:01.579Z,6.32
2022-08-29T04:15:29.033Z,6.43
2022-08-29T04:17:58.348Z,6.30
2022-08-29T04:20:27.409Z,6.50
2022-08-29T04:22:55.175Z,6.53
2022-08-29T04:25:24.789Z,7.00
2022-08-29T04:27:52.222Z,6.63
2022-08-29T04:30:23.227Z,6.72
2022-08-29T04:32:50.237Z,6.18
2022-08-29T04:35:17.535Z,6.68
2022-08-29T04:37:44.699Z,6.68
2022-08-29T04:40:15.630Z,6.18
2022-08-29T04:42:43.393Z,6.13
2022-08-29T04:45:12.810Z,6.70
2022-08-29T04:47:41.489Z,6.82
2022-08-29T04:50:10.799Z,6.70
2022-08-29T04:52:37.535Z,6.55
2022-08-29T04:55:05.758Z,6.60
2022-08-29T04:57:34.347Z,6.15
2022-08-29T05:00:01.059Z,6.97
2022-08-29T05:02:28.069Z,6.90
2022-08-29T05:04:56.482Z,7.20
2022-08-29T05:07:26.959Z,6.60
2022-08-29T05:10:01.135Z,7.15
2022-08-29T05:12:29.250Z,5.93
2022-08-29T05:14:57.445Z,7.25
2022-08-29T05:17:24.680Z,6.97
2022-08-29T05:19:51.837Z,7.47
2022-08-29T05:22:22.521Z,6.80
2022-08-29T05:24:49.984Z,7.18
2022-08-29T05:27:22.225Z,6.95
2022-08-29T05:29:51.326Z,7.35
2022-08-29T05:32:19.488Z,8.35
2022-08-29T05:34:48.180Z,8.02
2022-08-29T05:37:19.345Z,7.40
2022-08-29T05:39:47.183Z,7.53
2022-08-29T05:42:16.261Z,7.50
2022-08-29T05:44:43.239Z,6.88
2022-08-29T05:47:12.366Z,7.78
2022-08-29T05:49:41.187Z,7.07
2022-08-29T05:52:08.328Z,7.55
2022-08-29T05:54:37.122Z,7.38
2022-08-29T05:57:05.070Z,7.05
2022-08-29T05:59:31.794Z,7.53
2022-08-29T06:01:58.538Z,8.65
2022-08-29T06:04:25.355Z,8.13
2022-08-29T06:06:52.171Z,8.43
2022-08-29T06:09:19.060Z,7.78
2022-08-29T06:11:48.064Z,7.90
2022-08-29T06:14:16.185Z,8.05
2022-08-29T06:16:43.469Z,8.57
2022-08-29T06:19:10.571Z,10.50
2022-08-29T06:21:37.670Z,9.63
2022-08-29T06:24:05.382Z,9.40
2022-08-29T06:26:32.151Z,8.45
2022-08-29T06:28:59.319Z,10.43
2022-08-29T06:31:29.114Z,10.15
2022-08-29T06:33:59.714Z,9.88
2022-08-29T06:36:27.853Z,9.85
2022-08-29T06:38:59.375Z,10.07
2022-08-29T06:41:26.984Z,9.83
2022-08-29T06:43:56.797Z,10.55
2022-08-29T06:46:35.636Z,10.38
2022-08-29T06:49:07.094Z,9.25
2022-08-29T06:51:36.802Z,9.43
2022-08-29T06:54:07.137Z,10.27
2022-08-29T06:56:34.588Z,10.90
2022-08-29T06:59:05.065Z,10.13
2022-08-29T07:01:32.040Z,9.57
2022-08-29T07:04:01.277Z,11.40
2022-08-29T07:06:28.802Z,10.85
2022-08-29T07:08:57.064Z,10.13
2022-08-29T07:11:30.764Z,10.50
2022-08-29T07:13:59.815Z,11.45
2022-08-29T07:16:27.228Z,11.23
2022-08-29T07:18:54.919Z,10.38
2022-08-29T07:21:24.644Z,10.27
2022-08-29T07:23:53.293Z,11.40
2022-08-29T07:26:26.697Z,10.50
2022-08-29T07:28:55.405Z,9.98
2022-08-29T07:31:23.078Z,12.13
2022-08-29T07:33:59.704Z,10.73
2022-08-29T07:36:29.851Z,12.23
2022-08-29T07:38:56.763Z,11.32
2022-08-29T07:41:24.738Z,10.85
2022-08-29T07:43:51.882Z,11.50
2022-08-29T07:46:20.503Z,11.80
2022-08-29T07:48:48.244Z,12.23
2022-08-29T07:51:18.527Z,11.95
2022-08-29T07:53:46.789Z,11.40
2022-08-29T07:56:20.460Z,11.55
2022-08-29T07:58:47.268Z,10.70
2022-08-29T08:01:21.199Z,10.43
2022-08-29T08:03:50.248Z,10.27
2022-08-29T08:06:22.300Z,10.93
2022-08-29T08:08:49.747Z,10.97
2022-08-29T08:11:18.110Z,10.93
2022-08-29T08:13:44.911Z,11.50
2022-08-29T08:16:15.179Z,9.55
2022-08-29T08:18:43.724Z,10.30
2022-08-29T08:21:11.946Z,9.82
2022-08-29T08:23:39.187Z,11.20
2022-08-29T08:26:07.144Z,11.27
2022-08-29T08:28:33.927Z,10.95
2022-08-29T08:31:05.850Z,10.90
2022-08-29T08:33:35.190Z,9.95
2022-08-29T08:36:06.997Z,9.75
2022-08-29T08:38:33.659Z,10.10
2022-08-29T08:41:02.640Z,9.63
2022-08-29T08:43:54.421Z,9.85
2022-08-29T08:46:40.168Z,10.90
2022-08-29T08:49:32.588Z,10.13
2022-08-29T08:52:03.494Z,9.48
2022-08-29T08:54:50.025Z,9.95
2022-08-29T08:57:16.778Z,9.13
2022-08-29T08:59:48.123Z,9.52
2022-08-29T09:02:26.690Z,8.65
2022-08-29T09:05:08.105Z,8.65
2022-08-29T09:08:06.848Z,8.88
2022-08-29T09:10:48.543Z,8.65
2022-08-29T09:13:21.833Z,9.70
2022-08-29T09:15:53.492Z,8.38
2022-08-29T09:18:30.068Z,8.32
2022-08-29T09:20:57.316Z,9.93
2022-08-29T09:23:44.648Z,8.75
2022-08-29T09:26:15.234Z,9.57
2022-08-29T09:28:42.050Z,10.20
2022-08-29T09:31:33.550Z,11.27
2022-08-29T09:34:04.944Z,9.40
2022-08-29T09:36:47.423Z,10.38
2022-08-29T09:39:17.568Z,9.45
2022-08-29T09:41:46.838Z,8.60
2022-08-29T09:44:20.089Z,9.02
2022-08-29T09:46:47.014Z,8.60
2022-08-29T09:49:18.679Z,10.63
2022-08-29T09:51:48.565Z,8.73
2022-08-29T09:54:26.382Z,9.13
2022-08-29T09:57:10.556Z,9.32
2022-08-29T09:59:45.150Z,8.88
2022-08-29T10:02:34.509Z,7.82
2022-08-29T10:05:12.916Z,8.32
2022-08-29T10:07:49.514Z,7.13
2022-08-29T10:10:22.668Z,7.47
2022-08-29T10:13:01.121Z,7.70
2022-08-29T10:15:50.089Z,6.82
2022-08-29T10:18:42.829Z,7.07
2022-08-29T10:21:28.594Z,7.60
2022-08-29T10:24:32.931Z,7.20
2022-08-29T10:27:18.400Z,7.35
2022-08-29T10:30:00.491Z,6.50
2022-08-29T10:32:43.351Z,7.65
2022-08-29T10:35:29.708Z,7.60
2022-08-29T10:38:02.889Z,6.18
2022-08-29T10:40:53.405Z,6.15
2022-08-29T10:43:32.416Z,6.00
2022-08-29T10:46:28.216Z,6.53
2022-08-29T10:49:10.087Z,5.95
2022-08-29T10:51:49.647Z,6.35
2022-08-29T10:54:24.907Z,6.40
2022-08-29T10:56:54.508Z,5.93
2022-08-29T10:59:49.318Z,6.47
2022-08-29T11:02:50.884Z,6.20
2022-08-29T11:05:33.233Z,5.72
2022-08-29T11:10:40.579Z,5.57
2022-08-29T11:13:30.812Z,5.60
2022-08-29T11:16:00.397Z,5.70
2022-08-29T11:18:41.061Z,5.78
2022-08-29T11:21:27.384Z,5.60
2022-08-29T11:23:55.385Z,5.15
2022-08-29T11:26:22.000Z,5.10
2022-08-29T11:28:57.890Z,5.20
2022-08-29T11:31:50.528Z,5.35
2022-08-29T11:34:23.564Z,5.03
2022-08-29T11:37:15.163Z,4.80
2022-08-29T11:39:47.696Z,4.70
2022-08-29T11:42:49.729Z,5.15
2022-08-29T11:45:10.318Z,4.93
2022-08-29T11:47:46.135Z,4.45
2022-08-29T11:50:38.247Z,4.88
2022-08-29T11:53:20.542Z,4.72
2022-08-29T11:56:12.258Z,4.45
2022-08-29T11:58:40.231Z,4.50
2022-08-29T12:01:12.233Z,4.78
2022-08-29T12:03:39.110Z,4.65
2022-08-29T12:06:19.482Z,4.32
2022-08-29T12:09:14.266Z,4.38
2022-08-29T12:12:02.555Z,4.53
2022-08-29T12:14:50.631Z,4.10
2022-08-29T12:17:19.285Z,3.80
2022-08-29T12:19:47.117Z,4.13
2022-08-29T12:22:45.651Z,4.03
2022-08-29T12:25:27.691Z,4.50
2022-08-29T12:28:19.735Z,3.85
2022-08-29T12:31:26.156Z,3.70
2022-08-29T12:34:25.050Z,3.63
2022-08-29T12:37:07.949Z,4.00
2022-08-29T12:39:57.462Z,3.63
2022-08-29T12:42:27.239Z,3.40
2022-08-29T12:45:10.887Z,3.13
2022-08-29T12:47:50.871Z,3.70
2022-08-29T12:50:22.338Z,3.55
2022-08-29T12:53:02.356Z,3.38
2022-08-29T12:55:51.577Z,3.25
2022-08-29T12:58:39.740Z,3.30
2022-08-29T13:01:21.447Z,3.42
2022-08-29T13:04:00.815Z,3.22
2022-08-29T13:06:27.795Z,3.72
2022-08-29T13:08:54.464Z,3.53
2022-08-29T13:11:24.416Z,3.40
2022-08-29T13:13:51.339Z,3.72
2022-08-29T13:16:28.591Z,3.53
2022-08-29T13:19:10.072Z,3.28
2022-08-29T13:21:37.608Z,3.60
2022-08-29T13:24:19.303Z,3.22
2022-08-29T13:27:04.995Z,3.53
2022-08-29T13:29:38.939Z,3.45
2022-08-29T13:32:13.674Z,3.63
2022-08-29T13:34:59.918Z,3.50
2022-08-29T13:37:33.650Z,3.13
2022-08-29T13:40:31.268Z,3.35
2022-08-29T13:43:00.835Z,3.22
2022-08-29T13:45:27.602Z,3.45
2022-08-29T13:48:02.279Z,3.33
2022-08-29T13:50:29.516Z,3.85
2022-08-29T13:52:58.348Z,3.30
2022-08-29T13:55:25.407Z,3.10
2022-08-29T13:57:54.359Z,2.90
2022-08-29T14:00:32.001Z,3.00
2022-08-29T14:03:03.243Z,2.65
2022-08-29T14:05:30.094Z,2.75
2022-08-29T14:07:57.056Z,2.70
2022-08-29T14:10:24.077Z,2.63
2022-08-29T14:12:50.838Z,2.60
2022-08-29T14:15:18.279Z,2.85
2022-08-29T14:17:47.481Z,2.80
2022-08-29T14:20:16.054Z,3.08
2022-08-29T14:22:44.175Z,2.90
2022-08-29T14:25:12.584Z,3.03
2022-08-29T14:27:40.246Z,3.20
2022-08-29T14:30:10.304Z,3.05
2022-08-29T14:32:37.544Z,2.90
2022-08-29T14:35:05.486Z,3.08
2022-08-29T14:37:32.514Z,3.40
2022-08-29T14:39:59.491Z,3.13
2022-08-29T14:42:26.520Z,3.90
2022-08-29T14:44:53.212Z,3.83
2022-08-29T14:47:20.248Z,3.90
2022-08-29T14:49:47.051Z,3.47
2022-08-29T14:52:14.952Z,3.97
2022-08-29T14:54:43.305Z,3.60
2022-08-29T14:57:11.306Z,3.60
2022-08-29T14:59:39.420Z,4.03
2022-08-29T15:02:08.505Z,3.92
2022-08-29T15:04:36.922Z,3.60
2022-08-29T15:07:06.475Z,3.67
2022-08-29T15:09:33.387Z,3.90
2022-08-29T15:12:00.140Z,3.38
2022-08-29T15:14:27.047Z,3.75
2022-08-29T15:16:53.919Z,3.42
2022-08-29T15:22:08.715Z,3.70
2022-08-29T15:24:35.784Z,3.53
2022-08-29T15:27:02.859Z,3.80
2022-08-29T15:29:30.167Z,4.00
2022-08-29T15:31:57.476Z,3.50
2022-08-29T15:34:28.577Z,3.67
2022-08-29T15:36:56.387Z,3.88
2022-08-29T15:39:25.284Z,4.18
2022-08-29T15:41:52.022Z,3.90
2022-08-29T15:44:18.910Z,3.40
2022-08-29T15:46:51.018Z,3.97
2022-08-29T15:49:21.151Z,3.63
2022-08-29T15:51:48.946Z,3.45
2022-08-29T15:54:16.116Z,4.07
2022-08-29T15:56:43.571Z,3.75
2022-08-29T15:59:12.186Z,3.55
2022-08-29T16:01:48.557Z,3.50
2022-08-29T16:04:17.908Z,3.38
2022-08-29T16:06:45.018Z,3.67
2022-08-29T16:09:15.955Z,3.60
2022-08-29T16:11:48.580Z,3.53
2022-08-29T16:14:57.518Z,3.40
2022-08-29T16:17:04.633Z,3.45
2022-08-29T16:19:31.604Z,3.60
2022-08-29T16:21:59.852Z,3.55
2022-08-29T16:24:28.238Z,3.38
2022-08-29T16:26:55.386Z,3.58
2022-08-29T16:29:26.459Z,3.80
2022-08-29T16:31:56.090Z,3.90
2022-08-29T16:34:28.167Z,3.65
2022-08-29T16:36:59.540Z,3.85
2022-08-29T16:39:26.616Z,4.00
2022-08-29T16:41:53.975Z,3.67
2022-08-29T16:44:20.986Z,3.75
2022-08-29T16:46:47.670Z,3.83
2022-08-29T16:49:14.449Z,3.83
2022-08-29T16:51:41.137Z,3.35
2022-08-29T16:54:08.052Z,3.35
2022-08-29T16:56:34.888Z,3.78
2022-08-29T16:59:03.927Z,3.55
2022-08-29T17:01:36.135Z,3.60
2022-08-29T17:04:05.201Z,3.67
2022-08-29T17:06:32.948Z,4.13
2022-08-29T17:08:59.872Z,3.50
2022-08-29T17:11:29.761Z,4.00
2022-08-29T17:13:56.735Z,3.60
2022-08-29T17:16:23.892Z,3.80
2022-08-29T17:18:51.013Z,3.80
2022-08-29T17:21:18.338Z,3.55
2022-08-29T17:23:45.806Z,3.55
2022-08-29T17:26:16.217Z,3.90
2022-08-29T17:28:44.963Z,3.72
2022-08-29T17:31:12.179Z,3.60
2022-08-29T17:33:39.153Z,3.35
2022-08-29T17:36:06.936Z,4.03
2022-08-29T17:38:33.773Z,3.58
2022-08-29T17:41:14.021Z,4.45
2022-08-29T17:43:43.194Z,4.32
2022-08-29T17:46:10.118Z,4.20
2022-08-29T17:48:37.019Z,3.80
2022-08-29T17:51:04.162Z,3.90
2022-08-29T17:53:32.435Z,4.20
2022-08-29T17:56:09.977Z,4.22
2022-08-29T17:58:36.674Z,4.32
2022-08-29T18:01:03.531Z,4.03
2022-08-29T18:03:30.293Z,3.88
2022-08-29T18:05:56.965Z,4.90
2022-08-29T18:08:23.720Z,4.50
2022-08-29T18:10:51.610Z,4.50
2022-08-29T18:13:21.763Z,4.00
2022-08-29T18:15:50.558Z,4.50
2022-08-29T18:18:21.394Z,4.68
2022-08-29T18:20:48.352Z,4.68
2022-08-29T18:23:15.062Z,5.00
2022-08-29T18:25:41.835Z,4.82
2022-08-29T18:28:08.830Z,5.15
2022-08-29T18:30:35.770Z,5.18
2022-08-29T18:33:02.889Z,4.82
2022-08-29T18:35:29.739Z,4.97
2022-08-29T18:37:56.492Z,5.50
2022-08-29T18:40:24.414Z,5.78
2022-08-29T18:42:52.470Z,5.88
2022-08-29T18:45:19.262Z,5.78
2022-08-29T18:47:46.087Z,5.65
2022-08-29T18:50:31.452Z,5.53
2022-08-29T18:52:58.320Z,5.97
2022-08-29T18:55:25.229Z,6.13
2022-08-29T18:57:53.132Z,7.05
2022-08-29T19:00:22.174Z,6.40
2022-08-29T19:02:49.068Z,6.32
2022-08-29T19:05:16.761Z,6.40
2022-08-29T19:07:43.515Z,6.07
2022-08-29T19:10:11.034Z,6.40
2022-08-29T19:12:38.182Z,5.82
2022-08-29T19:15:08.228Z,5.93
2022-08-29T19:17:34.959Z,5.88
2022-08-29T19:20:25.937Z,5.45
2022-08-29T19:25:20.998Z,6.35
2022-08-29T19:27:47.890Z,5.60
2022-08-29T19:30:16.995Z,5.95
2022-08-29T19:32:43.849Z,5.85
2022-08-29T19:35:12.755Z,6.45
2022-08-29T19:37:41.614Z,5.68
2022-08-29T19:40:10.607Z,5.90
2022-08-29T19:42:38.615Z,5.47
2022-08-29T19:45:07.359Z,5.88
2022-08-29T19:47:34.079Z,6.18
2022-08-29T19:50:01.874Z,6.10
2022-08-29T19:52:29.334Z,6.25
2022-08-29T19:55:00.206Z,5.55
2022-08-29T19:57:27.275Z,5.57
2022-08-29T19:59:54.871Z,5.97
2022-08-29T20:02:21.723Z,6.20
2022-08-29T20:04:48.571Z,5.93
2022-08-29T20:07:15.291Z,5.82
2022-08-29T20:09:42.655Z,8.18
2022-08-29T20:12:10.770Z,6.13
2022-08-29T20:14:37.600Z,5.75
2022-08-29T20:17:09.259Z,5.10
2022-08-29T20:19:39.400Z,6.00
2022-08-29T20:22:06.973Z,6.15
2022-08-29T20:24:33.980Z,6.25
2022-08-29T20:27:01.583Z,5.82
2022-08-29T20:29:29.678Z,5.72
2022-08-29T20:31:58.698Z,5.45
2022-08-29T20:34:29.373Z,5.97
2022-08-29T20:37:08.647Z,5.90
2022-08-29T20:39:37.970Z,6.05
2022-08-29T20:42:07.383Z,6.18
2022-08-29T20:44:41.740Z,6.47
2022-08-29T20:47:12.509Z,6.35
2022-08-29T20:49:42.684Z,6.80
2022-08-29T20:52:12.536Z,6.28
2022-08-29T20:54:39.456Z,6.55
2022-08-29T20:57:07.488Z,6.38
2022-08-29T20:59:39.432Z,6.50
2022-08-29T21:02:09.736Z,6.70
2022-08-29T21:04:55.243Z,6.10
2022-08-29T21:07:22.114Z,6.50
2022-08-29T21:09:52.560Z,6.65
2022-08-29T21:12:20.839Z,6.90
2022-08-29T21:14:47.686Z,6.20
2022-08-29T21:17:15.197Z,6.32
2022-08-29T21:19:42.692Z,6.50
2022-08-29T21:22:11.535Z,6.53
2022-08-29T21:24:38.612Z,6.22
2022-08-29T21:27:05.499Z,7.00
2022-08-29T21:29:32.311Z,6.40
2022-08-29T21:31:59.083Z,7.53
2022-08-29T21:34:25.814Z,7.10
2022-08-29T21:36:52.654Z,6.60
2022-08-29T21:39:27.969Z,6.90
2022-08-29T21:41:55.439Z,6.88
2022-08-29T21:44:22.234Z,6.53
2022-08-29T21:46:49.052Z,6.85
2022-08-29T21:49:21.735Z,6.47
2022-08-29T21:51:49.008Z,6.30
2022-08-29T21:54:17.524Z,6.80
2022-08-29T21:56:45.262Z,7.20
2022-08-29T21:59:13.948Z,6.50
2022-08-29T22:01:41.977Z,7.00
2022-08-29T22:04:11.653Z,6.55
2022-08-29T22:06:46.883Z,7.40
2022-08-29T22:09:19.650Z,6.97
2022-08-29T22:11:49.247Z,7.03
2022-08-29T22:14:16.056Z,7.22
2022-08-29T22:16:43.058Z,7.47
2022-08-29T22:19:13.354Z,7.70
2022-08-29T22:21:45.086Z,7.13
2022-08-29T22:24:13.203Z,7.75
2022-08-29T22:26:41.356Z,7.00
2022-08-29T22:29:11.861Z,7.85
2022-08-29T22:31:39.645Z,6.53
2022-08-29T22:34:09.696Z,7.22
2022-08-29T22:36:36.650Z,7.43
2022-08-29T22:39:04.375Z,7.53
2022-08-29T22:41:31.518Z,8.20
2022-08-29T22:46:48.321Z,7.15
2022-08-29T22:49:15.067Z,7.47
2022-08-29T22:51:41.730Z,8.30
2022-08-29T22:54:26.960Z,6.90
2022-08-29T22:56:54.619Z,7.45
2022-08-29T22:59:22.215Z,7.35
2022-08-29T23:01:49.140Z,7.10
2022-08-29T23:04:15.855Z,7.25
2022-08-29T23:06:43.237Z,7.82
2022-08-29T23:09:10.009Z,7.50
2022-08-29T23:11:36.966Z,7.35
2022-08-29T23:14:04.259Z,7.88
2022-08-29T23:16:33.166Z,7.40
2022-08-29T23:19:00.896Z,7.68
2022-08-29T23:21:28.960Z,6.32
2022-08-29T23:23:56.429Z,7.32
2022-08-29T23:26:23.726Z,7.18
2022-08-29T23:28:50.980Z,6.88
2022-08-29T23:31:19.887Z,6.85
2022-08-29T23:33:46.849Z,7.20
2022-08-29T23:36:13.554Z,6.50
2022-08-29T23:38:40.928Z,8.35
2022-08-29T23:41:08.071Z,7.10
2022-08-29T23:43:37.022Z,7.38
2022-08-29T23:46:04.762Z,7.13
2022-08-29T23:48:32.203Z,7.97
2022-08-29T23:50:59.353Z,8.70
2022-08-29T23:53:26.411Z,8.10
2022-08-29T23:55:53.827Z,7.55
2022-08-29T23:58:20.926Z,7.38
